Novorossiyka, Russia
Current Conditions -  °F | °C
As of 5:00 PM on Thursday 29 Jan 2015 (Local Time) from UHBB Reporting Station
Light Snow Light Snow  
Wind Chill: -11°   Ceiling: Unl
Heat Index:   Visibility: 1.9mi
Dew Point:   Wind: 7mph
Humidity: 92%   Direction: 70°ENE
Pressure: 30.09"   Gusts: NA
Location:  52.15°N, 129.47°E
Report Text: UHBB 290800Z 07003MPS 3100 -SN NSC M17/M18 Q1019 NOSIG RMKQFE747/0996 36410260
Loading
Personal Weather Stations






























Interactive Weather Map New forecast layout! Learn more

10-Day Weather Forecast

Advertisements
Track Severe Weather on mobile